RCTP METAR and TAF | Updated Today

RCTP METAR

Taiwan Taoyuan International Airport

Observation time: 14 min. ago

RCTP 032130Z 06012KT 9999 FEW015 15/08 Q1023 NOSIG RMK A3022

Need help? Read our tutorial on how to read METARs or read the parsed version below.

Taiwan Taoyuan International Airport (RCTP) METAR

  • Weather conditions on Fri, 03 Dec 2021 21:30:00 +0000 (14 min. ago):
  • Present conditions: Dry
  • Clouds: A few at 457 meters
  • Visibility: Greater than 10 km
  • Wind: 60 degrees at 12 knots
  • Temperature: 15 celsius
  • Dew point: 8 celsius
  • Pressure: 1023 millibars
  • Remarks: A3022


Useful to know...

RCTP TAF

Taiwan Taoyuan International Airport

TAF RCTP 031700Z 0318/0424 08010KT 9999 FEW015 BECMG 0400/0402 04018KT BECMG 0410/0412 08010KT
Observation time: 4:44 hr. ago
Need help? Read our tutorial on how to read TAFs or read the parsed version below.

Parsed version of TAF for Taiwan Taoyuan International Airport (RCTP)

  • From 03 December at 18:00 UTC, to day 04 of the month at 24:00 UTC
  • Clouds: A few at 457 meters
  • Visibility: Greater than 10 km
  • Wind: 80 degrees at 10
  • Expected to arise soon, from 04 December at 00:00 UTC, to day 04 of the month at 02:00 UTC
  • Wind: 40 degrees at 18
  • Expected to arise soon, from 04 December at 10:00 UTC, to day 04 of the month at 12:00 UTC
  • Wind: 80 degrees at 10